Time;durP1;ratioP1;P1;durP2;ratioP2;P2;SDS_P1;SDS_P2;PMS_P1;PMS_P2;Temp;Humidity;BMP_temperature;BMP_pressure;BME280_temperature;BME280_humidity;BME280_pressure;Samples;Min_cycle;Max_cycle;Signal;HPM_P1;HPM_P2
2023/04/05 00:02:12;;;;;;;6.18;3.20;;;18.10;34.90;;;;;;5016211;28;20685;-73
2023/04/05 00:04:51;;;;;;;6.13;3.38;;;18.10;34.90;;;;;;5016263;28;20204;-75
2023/04/05 00:07:20;;;;;;;5.82;3.03;;;18.10;34.80;;;;;;5033216;28;20222;-75
2023/04/05 00:09:48;;;;;;;4.75;3.10;;;18.10;34.80;;;;;;5033619;28;20192;-75
2023/04/05 00:12:17;;;;;;;5.32;3.30;;;18.10;34.80;;;;;;5033454;28;20238;-74
2023/04/05 00:14:44;;;;;;;5.90;2.90;;;18.10;34.90;;;;;;5033574;28;20188;-74
2023/04/05 00:17:12;;;;;;;4.35;3.45;;;18.10;34.90;;;;;;5033814;28;20224;-74
2023/04/05 00:19:39;;;;;;;5.55;3.47;;;18.00;34.80;;;;;;5015776;28;20232;-75
2023/04/05 00:22:09;;;;;;;4.15;3.35;;;18.00;34.80;;;;;;5033167;28;20278;-71
2023/04/05 00:24:40;;;;;;;4.00;2.67;;;18.00;34.80;;;;;;5032644;28;20188;-74
2023/04/05 00:27:07;;;;;;;5.20;3.00;;;18.00;34.80;;;;;;5033291;28;20220;-74
2023/04/05 00:29:36;;;;;;;4.38;3.30;;;18.00;34.80;;;;;;5033482;28;20219;-74
2023/04/05 00:32:03;;;;;;;4.68;3.40;;;18.00;34.80;;;;;;5033365;28;20684;-74
2023/04/05 00:34:31;;;;;;;6.28;3.95;;;18.00;34.80;;;;;;5033218;28;20614;-74
2023/04/05 00:36:59;;;;;;;6.20;3.67;;;18.00;34.80;;;;;;5033634;28;20224;-75
2023/04/05 00:39:26;;;;;;;4.00;3.40;;;18.00;34.80;;;;;;4999851;28;20199;-74
2023/04/05 00:41:53;;;;;;;5.07;2.90;;;18.00;34.80;;;;;;5033377;28;20270;-75
2023/04/05 00:44:20;;;;;;;5.05;3.15;;;18.00;34.80;;;;;;5015815;28;20220;-75
2023/04/05 00:46:49;;;;;;;6.45;3.42;;;18.00;34.80;;;;;;5033030;28;20243;-75
2023/04/05 00:49:16;;;;;;;6.95;3.50;;;18.00;34.80;;;;;;5033168;28;20266;-75
2023/04/05 00:51:44;;;;;;;4.93;3.67;;;17.90;34.70;;;;;;5033119;28;20259;-74
2023/04/05 00:54:12;;;;;;;5.07;3.30;;;17.90;34.80;;;;;;5028869;28;20657;-74
2023/04/05 00:56:41;;;;;;;5.80;3.00;;;17.90;34.80;;;;;;5032772;28;20247;-75
2023/04/05 00:59:08;;;;;;;5.53;3.72;;;17.90;34.80;;;;;;5033166;28;20230;-75
2023/04/05 01:01:39;;;;;;;4.53;3.33;;;17.90;34.70;;;;;;5032612;28;20303;-75
2023/04/05 01:04:10;;;;;;;4.90;3.20;;;17.90;34.80;;;;;;5033012;28;20214;-74
2023/04/05 01:06:48;;;;;;;7.93;3.42;;;17.90;34.80;;;;;;5032472;28;20239;-74
2023/04/05 01:09:29;;;;;;;5.70;3.40;;;17.90;34.90;;;;;;5032772;28;20239;-75
2023/04/05 01:11:58;;;;;;;5.43;3.38;;;17.90;34.80;;;;;;5033101;28;20245;-74
2023/04/05 01:14:25;;;;;;;3.55;2.90;;;17.90;34.80;;;;;;5032873;28;20216;-74
2023/04/05 01:16:56;;;;;;;6.18;3.17;;;17.90;34.80;;;;;;5014709;28;20261;-74
2023/04/05 01:19:28;;;;;;;4.22;3.42;;;17.90;34.80;;;;;;5032105;28;20188;-74
2023/04/05 01:22:25;;;;;;;5.00;3.40;;;17.90;34.90;;;;;;5014817;28;20216;-75
2023/04/05 01:25:10;;;;;;;4.60;3.33;;;17.90;35.00;;;;;;5032683;28;20287;-74
2023/04/05 01:27:57;;;;;;;4.40;3.33;;;17.90;34.80;;;;;;5032456;28;20266;-73
2023/04/05 01:30:32;;;;;;;7.15;3.90;;;17.80;34.80;;;;;;5032546;28;20251;-74
2023/04/05 01:33:09;;;;;;;4.60;3.30;;;17.80;34.70;;;;;;5032495;28;20227;-75
2023/04/05 01:35:44;;;;;;;4.32;3.22;;;17.80;34.80;;;;;;5032210;28;20660;-75
2023/04/05 01:38:13;;;;;;;4.63;3.55;;;17.80;34.80;;;;;;5015591;28;20219;-74
2023/04/05 01:40:41;;;;;;;5.20;3.38;;;17.80;34.80;;;;;;5032438;28;20248;-74
2023/04/05 01:43:13;;;;;;;3.80;3.10;;;17.80;34.80;;;;;;5032133;28;20255;-75
2023/04/05 01:45:43;;;;;;;4.90;3.38;;;17.80;34.90;;;;;;5032380;28;20248;-75
2023/04/05 01:48:10;;;;;;;4.47;3.50;;;17.80;34.80;;;;;;5032501;28;20255;-74
2023/04/05 01:50:37;;;;;;;5.97;3.70;;;17.80;34.80;;;;;;5031943;28;20212;-75
2023/04/05 01:53:04;;;;;;;5.22;3.53;;;17.80;34.80;;;;;;5032096;28;20231;-74
2023/04/05 01:55:31;;;;;;;4.60;3.47;;;17.80;34.80;;;;;;5032127;28;20216;-74
2023/04/05 01:57:58;;;;;;;5.90;3.70;;;17.80;34.80;;;;;;5031913;28;20623;-74
2023/04/05 02:00:26;;;;;;;5.28;3.70;;;17.80;34.80;;;;;;5032166;28;20220;-73
2023/04/05 02:02:55;;;;;;;5.22;3.42;;;17.80;34.80;;;;;;5014438;28;20646;-75
2023/04/05 02:05:22;;;;;;;6.13;3.95;;;17.70;34.80;;;;;;5032140;28;20638;-75
2023/04/05 02:07:49;;;;;;;4.88;3.90;;;17.70;34.70;;;;;;5031650;28;20325;-75
2023/04/05 02:10:16;;;;;;;4.60;3.60;;;17.70;34.60;;;;;;5031882;28;20275;-74
2023/04/05 02:12:43;;;;;;;5.82;4.30;;;17.70;34.70;;;;;;5031558;28;20666;-73
2023/04/05 02:15:11;;;;;;;5.28;3.67;;;17.70;34.70;;;;;;5031554;28;20234;-74
2023/04/05 02:17:39;;;;;;;6.95;4.13;;;17.70;34.70;;;;;;5031892;28;20539;-74
2023/04/05 02:20:11;;;;;;;4.97;3.72;;;17.70;34.70;;;;;;5031452;28;20188;-74
2023/04/05 02:22:38;;;;;;;6.40;4.03;;;17.70;34.70;;;;;;5031930;28;20189;-74
2023/04/05 02:25:07;;;;;;;6.28;3.83;;;17.70;34.70;;;;;;5031723;28;20189;-72
2023/04/05 02:27:35;;;;;;;6.80;4.53;;;17.70;34.70;;;;;;5031426;28;20597;-75
2023/04/05 02:30:01;;;;;;;6.43;4.22;;;17.70;34.70;;;;;;5034390;28;20258;-74
2023/04/05 02:32:30;;;;;;;5.50;3.85;;;17.70;34.70;;;;;;5018057;28;20670;-74
2023/04/05 02:34:57;;;;;;;6.78;4.00;;;17.70;35.40;;;;;;5035806;28;20188;-75
2023/04/05 02:37:26;;;;;;;6.82;4.32;;;17.70;34.70;;;;;;5035380;28;20259;-75
2023/04/05 02:39:53;;;;;;;4.85;3.47;;;17.60;34.60;;;;;;5035594;28;20223;-74
2023/04/05 02:42:20;;;;;;;6.30;4.63;;;17.60;34.60;;;;;;5035088;28;20282;-72
2023/04/05 02:44:47;;;;;;;5.38;4.00;;;17.60;34.60;;;;;;5035180;28;20227;-75
2023/04/05 02:47:20;;;;;;;4.82;3.72;;;17.60;34.70;;;;;;5035710;28;20671;-74
2023/04/05 02:49:47;;;;;;;6.68;4.32;;;17.60;34.60;;;;;;5035189;28;20191;-75
2023/04/05 02:52:14;;;;;;;5.63;4.22;;;17.60;34.70;;;;;;5035672;28;20600;-75
2023/04/05 02:54:45;;;;;;;6.93;4.07;;;17.60;34.70;;;;;;5017431;28;20196;-75
2023/04/05 02:57:12;;;;;;;5.80;3.85;;;17.60;34.70;;;;;;5035437;28;20212;-74
2023/04/05 02:59:41;;;;;;;6.43;4.00;;;17.60;34.70;;;;;;5035413;28;20220;-75
2023/04/05 03:02:09;;;;;;;5.72;3.97;;;17.60;34.60;;;;;;5035207;28;20212;-74
2023/04/05 03:04:37;;;;;;;6.72;4.38;;;17.60;34.70;;;;;;5034912;28;20635;-74
2023/04/05 03:07:06;;;;;;;6.90;4.15;;;17.60;34.70;;;;;;5035305;28;20239;-75
2023/04/05 03:09:33;;;;;;;4.80;3.80;;;17.60;34.80;;;;;;5035168;28;20223;-75
2023/04/05 03:12:03;;;;;;;7.15;3.60;;;17.60;34.70;;;;;;5035016;28;20680;-74
2023/04/05 03:14:30;;;;;;;5.30;3.95;;;17.60;34.80;;;;;;5034769;28;20196;-75
2023/04/05 03:16:57;;;;;;;5.40;3.85;;;17.50;34.80;;;;;;5034702;28;20258;-75
2023/04/05 03:19:25;;;;;;;3.97;3.50;;;17.60;34.80;;;;;;5034950;28;20409;-75
2023/04/05 03:21:53;;;;;;;5.93;3.80;;;17.60;34.80;;;;;;5034874;28;20295;-74
2023/04/05 03:24:20;;;;;;;4.70;3.47;;;17.50;34.80;;;;;;5034650;28;20669;-74
2023/04/05 03:26:48;;;;;;;5.20;3.42;;;17.50;34.80;;;;;;5035078;28;20220;-75
2023/04/05 03:29:17;;;;;;;5.45;3.50;;;17.50;34.70;;;;;;5034775;28;20196;-75
2023/04/05 03:31:45;;;;;;;5.78;3.72;;;17.50;34.80;;;;;;5034470;28;20254;-74
2023/04/05 03:34:12;;;;;;;3.90;3.22;;;17.50;34.80;;;;;;5016885;28;20224;-73
2023/04/05 03:36:42;;;;;;;6.25;3.55;;;17.50;34.80;;;;;;5034422;28;20213;-75
2023/04/05 03:39:09;;;;;;;4.50;3.58;;;17.50;34.80;;;;;;5034558;28;20224;-74
2023/04/05 03:41:36;;;;;;;4.80;3.22;;;17.50;34.80;;;;;;5033624;28;20216;-74
2023/04/05 03:44:03;;;;;;;6.60;3.38;;;17.50;34.90;;;;;;5034062;28;20716;-75
2023/04/05 03:46:32;;;;;;;6.32;3.53;;;17.50;34.90;;;;;;5034519;28;20255;-75
2023/04/05 03:49:01;;;;;;;4.43;3.17;;;17.50;34.90;;;;;;5034331;28;20687;-74
2023/04/05 03:51:27;;;;;;;5.00;3.28;;;17.50;34.90;;;;;;5034231;28;20632;-74
2023/04/05 03:53:55;;;;;;;4.43;3.35;;;17.50;34.80;;;;;;5033927;28;20228;-74
2023/04/05 03:56:22;;;;;;;4.55;3.40;;;17.50;34.90;;;;;;5016536;28;20274;-74
2023/04/05 03:58:49;;;;;;;4.55;3.33;;;17.50;34.90;;;;;;5033848;28;20254;-74
2023/04/05 04:01:17;;;;;;;4.22;3.40;;;17.50;34.90;;;;;;5033557;28;20275;-75
2023/04/05 04:03:46;;;;;;;5.25;3.40;;;17.50;34.90;;;;;;5016287;28;20204;-75
2023/04/05 04:06:13;;;;;;;5.15;3.30;;;17.50;34.90;;;;;;5033648;28;20254;-75
2023/04/05 04:08:40;;;;;;;5.03;3.60;;;17.50;35.00;;;;;;5033885;28;20228;-75
2023/04/05 04:11:07;;;;;;;4.40;3.15;;;17.50;35.00;;;;;;5033895;28;20220;-75
2023/04/05 04:13:34;;;;;;;5.13;3.60;;;17.50;35.00;;;;;;5034027;28;20192;-75
2023/04/05 04:16:02;;;;;;;6.25;3.42;;;17.50;35.00;;;;;;5034097;28;20256;-75
2023/04/05 04:18:29;;;;;;;5.20;3.35;;;17.40;34.90;;;;;;5033521;28;20661;-75
2023/04/05 04:20:58;;;;;;;5.70;3.28;;;17.50;35.00;;;;;;5015962;28;20717;-74
2023/04/05 04:23:26;;;;;;;4.70;3.22;;;17.40;34.90;;;;;;5033776;28;20189;-75
2023/04/05 04:25:53;;;;;;;4.40;3.30;;;17.50;35.10;;;;;;5033700;28;20258;-74
2023/04/05 04:28:23;;;;;;;4.57;3.35;;;17.50;35.10;;;;;;5015533;28;20231;-75
2023/04/05 04:30:51;;;;;;;4.03;3.40;;;17.40;35.00;;;;;;5033394;28;20275;-74
2023/04/05 04:33:18;;;;;;;4.68;3.28;;;17.40;35.00;;;;;;5033596;28;20255;-75
2023/04/05 04:35:46;;;;;;;4.38;3.25;;;17.40;35.00;;;;;;5033434;28;20314;-75
2023/04/05 04:38:17;;;;;;;4.75;3.35;;;17.40;35.10;;;;;;5015883;28;20713;-74
2023/04/05 04:40:46;;;;;;;6.28;3.85;;;17.40;35.10;;;;;;5033061;28;20216;-75
2023/04/05 04:43:17;;;;;;;3.88;3.00;;;17.40;35.00;;;;;;5033285;28;20290;-75
2023/04/05 04:45:50;;;;;;;5.15;3.38;;;17.40;35.10;;;;;;5033397;28;20216;-75
2023/04/05 04:48:18;;;;;;;5.22;3.17;;;17.40;35.10;;;;;;5033333;28;20671;-75
2023/04/05 04:50:45;;;;;;;4.47;3.20;;;17.40;35.20;;;;;;5033224;28;20244;-75
2023/04/05 04:53:16;;;;;;;6.00;3.20;;;17.50;35.20;;;;;;5032978;28;20218;-75
2023/04/05 04:55:43;;;;;;;4.25;2.90;;;17.50;35.20;;;;;;5032679;28;20248;-75
2023/04/05 04:58:11;;;;;;;3.92;3.15;;;17.50;35.10;;;;;;5033132;28;20204;-75
2023/04/05 05:00:39;;;;;;;4.20;3.00;;;17.50;35.10;;;;;;5033010;28;20212;-75
2023/04/05 05:03:07;;;;;;;5.32;2.85;;;17.60;35.30;;;;;;5033024;28;20568;-75
2023/04/05 05:05:34;;;;;;;3.80;3.25;;;17.60;35.20;;;;;;5032685;28;20228;-75
2023/04/05 05:08:01;;;;;;;4.70;3.03;;;17.60;35.20;;;;;;5032786;28;20252;-75
2023/04/05 05:10:31;;;;;;;5.13;2.95;;;17.70;35.30;;;;;;5032312;28;20674;-74
2023/04/05 05:12:58;;;;;;;4.22;2.90;;;17.70;35.30;;;;;;5032938;28;20189;-75
2023/04/05 05:15:26;;;;;;;4.43;3.17;;;17.80;35.40;;;;;;5032406;28;20220;-75
2023/04/05 05:17:55;;;;;;;5.82;3.38;;;17.80;35.40;;;;;;5032528;28;20247;-75
2023/04/05 05:20:22;;;;;;;7.40;3.30;;;17.80;35.40;;;;;;5032328;28;20196;-75
2023/04/05 05:22:50;;;;;;;4.10;2.72;;;17.80;35.40;;;;;;5032355;28;20230;-75
2023/04/05 05:25:17;;;;;;;4.65;3.08;;;17.90;36.10;;;;;;5032710;28;20193;-74
2023/04/05 05:27:49;;;;;;;4.13;3.08;;;17.90;35.40;;;;;;5032640;28;20270;-75
2023/04/05 05:30:16;;;;;;;5.47;3.25;;;17.90;35.50;;;;;;5032436;28;20222;-75
2023/04/05 05:32:43;;;;;;;5.68;3.17;;;17.90;35.40;;;;;;5032435;28;20254;-75
2023/04/05 05:35:10;;;;;;;4.32;2.97;;;18.00;35.50;;;;;;5015024;28;20246;-75
2023/04/05 05:37:37;;;;;;;3.58;2.72;;;18.00;35.50;;;;;;5032671;28;20247;-75
2023/04/05 05:40:05;;;;;;;4.43;3.08;;;18.00;35.60;;;;;;5031859;28;20196;-75
2023/04/05 05:42:32;;;;;;;4.00;2.88;;;18.10;35.70;;;;;;5032040;28;20263;-75
2023/04/05 05:45:05;;;;;;;5.25;2.80;;;18.10;35.60;;;;;;5032546;28;20413;-75
2023/04/05 05:47:33;;;;;;;3.70;2.78;;;18.10;35.70;;;;;;5032127;28;20266;-75
2023/04/05 05:50:00;;;;;;;3.83;2.78;;;18.10;35.70;;;;;;5032074;28;20235;-75
2023/04/05 05:52:27;;;;;;;3.67;2.97;;;18.20;35.90;;;;;;5032373;28;20220;-75
2023/04/05 05:54:54;;;;;;;3.63;2.47;;;18.20;35.80;;;;;;5032275;28;20192;-75
2023/04/05 05:57:22;;;;;;;6.32;2.72;;;18.20;35.90;;;;;;5032083;28;20688;-75
2023/04/05 05:59:49;;;;;;;3.08;2.78;;;18.20;35.80;;;;;;5032264;28;20192;-75
2023/04/05 06:02:18;;;;;;;3.28;2.58;;;18.20;35.80;;;;;;5014332;28;20216;-75
2023/04/05 06:04:45;;;;;;;4.78;2.63;;;18.20;35.80;;;;;;5034372;28;20219;-75
2023/04/05 06:07:12;;;;;;;8.02;2.92;;;18.30;35.90;;;;;;5036287;28;20216;-76
2023/04/05 06:09:39;;;;;;;4.60;2.72;;;18.30;35.80;;;;;;5018203;28;20259;-75
2023/04/05 06:12:07;;;;;;;4.72;2.92;;;18.30;35.70;;;;;;5035980;28;20677;-75
2023/04/05 06:14:34;;;;;;;6.20;2.97;;;18.30;35.60;;;;;;5036246;28;20192;-76
2023/04/05 06:17:01;;;;;;;3.67;2.60;;;18.30;35.60;;;;;;5033516;28;20224;-75
2023/04/05 06:19:29;;;;;;;3.35;2.97;;;18.30;35.60;;;;;;5035955;28;20212;-75
2023/04/05 06:21:59;;;;;;;4.85;2.47;;;18.30;35.60;;;;;;5035931;28;20247;-75
2023/04/05 06:24:30;;;;;;;4.13;2.75;;;18.40;35.60;;;;;;5018355;28;20255;-76
2023/04/05 06:26:58;;;;;;;4.28;2.90;;;18.40;35.60;;;;;;5035793;28;20216;-74
2023/04/05 06:29:25;;;;;;;3.85;2.88;;;18.40;35.60;;;;;;5035683;28;20208;-75
2023/04/05 06:31:53;;;;;;;6.65;3.30;;;18.40;35.60;;;;;;5035757;28;20323;-75
2023/04/05 06:34:20;;;;;;;5.97;2.95;;;18.40;35.60;;;;;;5035519;28;20189;-74
2023/04/05 06:36:49;;;;;;;4.10;2.83;;;18.40;35.60;;;;;;5035849;28;20270;-76
2023/04/05 06:39:16;;;;;;;4.32;2.67;;;18.40;35.70;;;;;;5034447;28;20614;-75
2023/04/05 06:41:43;;;;;;;26.35;3.25;;;18.50;35.70;;;;;;5031116;28;20723;-75
2023/04/05 06:44:10;;;;;;;5.00;2.95;;;18.50;35.70;;;;;;5031654;28;20263;-75
2023/04/05 06:46:37;;;;;;;5.28;3.15;;;18.60;35.80;;;;;;5031847;28;20281;-75
2023/04/05 06:49:05;;;;;;;5.45;3.10;;;18.60;35.80;;;;;;5016173;28;20306;-78
2023/04/05 06:51:32;;;;;;;3.92;2.75;;;18.60;35.80;;;;;;5014345;28;20231;-73
2023/04/05 06:54:02;;;;;;;8.23;3.00;;;18.60;35.80;;;;;;5001025;28;20233;-76
2023/04/05 06:56:29;;;;;;;5.63;2.95;;;18.70;35.90;;;;;;5029589;28;20791;-77
2023/04/05 06:58:58;;;;;;;5.22;2.50;;;18.70;35.80;;;;;;5047066;28;20238;-77
2023/04/05 07:01:25;;;;;;;6.47;3.40;;;18.70;35.70;;;;;;5030483;28;20227;-77
2023/04/05 07:03:53;;;;;;;5.03;2.83;;;18.70;35.80;;;;;;5030068;28;20228;-78
2023/04/05 07:06:22;;;;;;;4.75;2.90;;;18.70;35.90;;;;;;5031111;28;20395;-77
2023/04/05 07:08:50;;;;;;;8.05;2.95;;;18.80;36.00;;;;;;5030327;28;20212;-77
2023/04/05 07:11:18;;;;;;;4.53;2.75;;;18.80;36.10;;;;;;5029966;28;20602;-74
2023/04/05 07:13:46;;;;;;;4.20;2.88;;;18.80;36.00;;;;;;5029681;28;20250;-77
2023/04/05 07:16:13;;;;;;;4.55;2.78;;;18.80;36.00;;;;;;5011756;28;20590;-74
2023/04/05 07:18:40;;;;;;;6.38;2.60;;;18.90;36.20;;;;;;5026800;28;20752;-77
2023/04/05 07:21:08;;;;;;;3.78;2.70;;;18.90;36.10;;;;;;5034202;28;20234;-80
2023/04/05 07:23:35;;;;;;;7.05;2.92;;;18.90;35.90;;;;;;5041041;28;20188;-79
2023/04/05 07:26:04;;;;;;;4.95;3.13;;;18.90;36.10;;;;;;5033596;28;20188;-79
2023/04/05 07:28:34;;;;;;;6.07;2.60;;;19.00;36.20;;;;;;5051391;28;20246;-82
2023/04/05 07:31:01;;;;;;;3.92;2.97;;;19.00;36.10;;;;;;5051946;28;20191;-78
2023/04/05 07:33:29;;;;;;;7.38;2.80;;;19.00;36.10;;;;;;5015429;28;20294;-76
2023/04/05 07:35:56;;;;;;;4.95;3.08;;;19.00;36.10;;;;;;5034541;28;20204;-77
2023/04/05 07:38:24;;;;;;;6.00;3.20;;;19.10;36.00;;;;;;5022775;28;20201;-76
2023/04/05 07:40:51;;;;;;;5.88;3.08;;;19.10;36.10;;;;;;5028967;28;20250;-77
2023/04/05 07:43:19;;;;;;;5.68;2.90;;;19.10;36.10;;;;;;5029297;28;20629;-78
2023/04/05 07:45:48;;;;;;;6.90;2.92;;;19.10;35.90;;;;;;5049789;28;20209;-72
2023/04/05 07:48:15;;;;;;;7.03;3.00;;;19.10;35.90;;;;;;5047884;28;20258;-75
2023/04/05 07:50:46;;;;;;;4.35;2.70;;;19.10;36.00;;;;;;5024631;28;20247;-77
2023/04/05 07:53:14;;;;;;;5.00;2.70;;;19.20;36.10;;;;;;5030543;28;20200;-74
2023/04/05 07:55:41;;;;;;;7.95;3.00;;;19.20;36.50;;;;;;5025809;28;20205;-72
2023/04/05 07:58:09;;;;;;;4.65;3.10;;;19.20;35.80;;;;;;5028284;28;20255;-73
2023/04/05 08:00:37;;;;;;;4.43;3.13;;;19.20;35.80;;;;;;5024468;28;20208;-72
2023/04/05 08:03:06;;;;;;;6.38;3.10;;;19.30;36.20;;;;;;5011603;28;20264;-74
2023/04/05 08:05:33;;;;;;;4.65;2.85;;;19.30;36.20;;;;;;5029573;28;20228;-73
2023/04/05 08:08:00;;;;;;;5.38;2.70;;;19.30;36.10;;;;;;5028735;28;20563;-74
2023/04/05 08:10:28;;;;;;;6.13;2.75;;;19.40;36.00;;;;;;5028754;28;20702;-78
2023/04/05 08:12:55;;;;;;;5.43;3.30;;;19.40;36.00;;;;;;5029659;28;20640;-78
2023/04/05 08:15:22;;;;;;;6.20;2.83;;;19.40;36.00;;;;;;5028309;28;20240;-77
2023/04/05 08:17:49;;;;;;;8.85;3.20;;;19.40;35.90;;;;;;5029339;28;20251;-76
2023/04/05 08:20:18;;;;;;;7.25;3.40;;;19.50;36.00;;;;;;5010184;28;20214;-77
2023/04/05 08:22:45;;;;;;;6.78;3.00;;;19.50;36.00;;;;;;5029386;28;20726;-77
2023/04/05 08:25:12;;;;;;;8.40;2.90;;;19.50;36.00;;;;;;5044189;28;20219;-77
2023/04/05 08:27:40;;;;;;;7.45;3.10;;;19.50;36.00;;;;;;5048099;28;20215;-77
2023/04/05 08:30:18;;;;;;;9.63;2.90;;;19.50;36.00;;;;;;5028622;28;20220;-76
2023/04/05 08:32:46;;;;;;;6.10;2.90;;;19.50;36.00;;;;;;5020628;28;20232;-79
2023/04/05 08:35:22;;;;;;;10.45;2.88;;;19.50;36.00;;;;;;4975054;28;20207;-77
2023/04/05 08:37:53;;;;;;;5.93;3.47;;;19.60;36.10;;;;;;5040059;28;20207;-77
2023/04/05 08:40:21;;;;;;;6.45;3.30;;;19.60;36.10;;;;;;4965042;28;20231;-75
2023/04/05 08:42:59;;;;;;;7.35;3.35;;;19.60;36.10;;;;;;4972587;28;20233;-76
2023/04/05 08:45:29;;;;;;;10.00;3.80;;;19.60;36.10;;;;;;5023373;28;20200;-78
2023/04/05 08:48:00;;;;;;;7.88;3.10;;;19.60;36.10;;;;;;4993483;28;20239;-77
2023/04/05 08:50:28;;;;;;;11.70;3.20;;;19.60;36.20;;;;;;5028013;28;21313;-78
2023/04/05 08:53:03;;;;;;;6.57;2.92;;;19.70;36.30;;;;;;5023662;28;20303;-77
2023/04/05 08:55:32;;;;;;;8.65;3.10;;;19.70;36.30;;;;;;5028514;28;20202;-75
2023/04/05 08:58:03;;;;;;;6.25;3.00;;;19.70;36.40;;;;;;4959372;28;20221;-76
2023/04/05 09:00:35;;;;;;;10.85;2.90;;;19.70;36.30;;;;;;5023498;28;20215;-78
2023/04/05 09:03:06;;;;;;;5.70;2.88;;;19.70;36.30;;;;;;5027324;28;20228;-77
2023/04/05 09:05:39;;;;;;;5.82;2.85;;;19.70;36.40;;;;;;5028232;28;20224;-76
2023/04/05 09:08:10;;;;;;;5.70;3.05;;;19.70;36.50;;;;;;5027842;28;20742;-75
2023/04/05 09:10:48;;;;;;;6.90;2.83;;;19.70;36.40;;;;;;5028732;28;20220;-78
2023/04/05 09:13:17;;;;;;;5.70;2.67;;;19.80;36.50;;;;;;5028768;28;20220;-77
2023/04/05 09:15:49;;;;;;;8.07;2.72;;;19.80;36.60;;;;;;5010894;28;20204;-78
2023/04/05 09:18:20;;;;;;;11.13;2.53;;;19.80;36.60;;;;;;5029518;28;20216;-78
2023/04/05 09:20:53;;;;;;;6.15;2.70;;;19.80;36.70;;;;;;4961772;28;20255;-78
2023/04/05 09:23:25;;;;;;;5.40;2.90;;;19.80;36.70;;;;;;5017038;28;20238;-77
2023/04/05 09:26:20;;;;;;;9.50;2.70;;;19.90;36.80;;;;;;5043324;28;20796;-77
2023/04/05 09:28:48;;;;;;;8.13;2.78;;;19.90;36.80;;;;;;5034763;28;20221;-75
2023/04/05 09:31:33;;;;;;;4.40;2.40;;;19.90;36.80;;;;;;5025867;28;20350;-77
2023/04/05 09:34:02;;;;;;;8.77;2.70;;;19.90;36.80;;;;;;5033749;28;20282;-76
2023/04/05 09:36:31;;;;;;;5.75;2.55;;;19.90;36.80;;;;;;5033060;28;20267;-78
2023/04/05 09:39:09;;;;;;;3.90;2.20;;;19.90;36.80;;;;;;5018009;28;20201;-77
2023/04/05 09:41:38;;;;;;;4.97;2.40;;;19.90;36.80;;;;;;5009775;28;20309;-75
2023/04/05 09:44:06;;;;;;;5.72;2.58;;;19.90;36.80;;;;;;5027773;28;20282;-77
2023/04/05 09:46:36;;;;;;;7.57;2.58;;;19.90;36.80;;;;;;5026873;28;20224;-77
2023/04/05 09:49:05;;;;;;;8.45;2.70;;;19.90;36.90;;;;;;5027046;28;20238;-74
2023/04/05 09:51:35;;;;;;;4.57;2.33;;;19.90;37.00;;;;;;5027508;28;20309;-76
2023/04/05 09:54:03;;;;;;;7.53;2.60;;;19.90;37.00;;;;;;5027156;28;20246;-77
2023/04/05 09:56:34;;;;;;;9.45;2.95;;;20.00;37.00;;;;;;5007861;28;20295;-78
2023/04/05 09:59:03;;;;;;;4.47;2.78;;;20.00;37.00;;;;;;5010301;28;20240;-76
2023/04/05 10:01:31;;;;;;;7.05;2.80;;;20.00;37.10;;;;;;5027990;28;20188;-76
2023/04/05 10:03:59;;;;;;;4.30;2.40;;;20.00;37.20;;;;;;5027311;28;20222;-76
2023/04/05 10:06:38;;;;;;;5.88;2.60;;;20.00;37.20;;;;;;5009653;28;20204;-76
2023/04/05 10:09:06;;;;;;;6.57;2.47;;;20.00;37.20;;;;;;5025771;28;20299;-76
2023/04/05 10:11:37;;;;;;;9.77;2.35;;;20.00;37.50;;;;;;5008863;28;20220;-75
2023/04/05 10:14:05;;;;;;;6.07;2.35;;;20.10;37.30;;;;;;5026088;28;20204;-79
2023/04/05 10:16:38;;;;;;;6.47;2.72;;;20.10;37.20;;;;;;5025485;28;20670;-79
2023/04/05 10:19:07;;;;;;;7.05;2.60;;;20.10;37.30;;;;;;5025529;28;20204;-77
2023/04/05 10:21:40;;;;;;;4.68;2.50;;;20.10;37.20;;;;;;5026294;28;20327;-77
2023/04/05 10:24:18;;;;;;;6.57;2.50;;;20.10;37.20;;;;;;5024044;28;20228;-77
2023/04/05 10:26:59;;;;;;;3.40;2.22;;;20.10;37.40;;;;;;5025792;28;20224;-76
2023/04/05 10:29:35;;;;;;;3.42;2.50;;;20.10;37.20;;;;;;5019636;28;20244;-76
2023/04/05 10:32:08;;;;;;;9.63;2.78;;;20.10;37.20;;;;;;5027618;28;20220;-76
2023/04/05 10:34:45;;;;;;;2.80;2.30;;;20.20;37.30;;;;;;5028448;28;20236;-76
2023/04/05 10:37:23;;;;;;;6.13;2.20;;;20.20;37.30;;;;;;5025962;28;20314;-76
2023/04/05 10:39:51;;;;;;;8.40;3.38;;;20.20;37.30;;;;;;5027125;28;20223;-75
2023/04/05 10:42:23;;;;;;;5.05;2.53;;;20.20;37.30;;;;;;5026232;28;20255;-76
2023/04/05 10:44:54;;;;;;;3.65;2.42;;;20.20;37.20;;;;;;5027288;28;20282;-77
2023/04/05 10:47:23;;;;;;;7.03;2.63;;;20.20;37.30;;;;;;4991824;28;20228;-77
2023/04/05 10:49:55;;;;;;;3.88;2.38;;;20.20;37.30;;;;;;5027395;28;20224;-76
2023/04/05 10:52:24;;;;;;;4.03;2.55;;;20.20;37.30;;;;;;5029977;28;20252;-75
2023/04/05 10:54:55;;;;;;;5.43;2.50;;;20.20;37.30;;;;;;5028233;28;20208;-75
2023/04/05 10:57:25;;;;;;;4.15;2.55;;;20.20;37.30;;;;;;5028711;28;20235;-76
2023/04/05 10:59:54;;;;;;;3.53;2.08;;;20.20;37.20;;;;;;5022492;28;20196;-74
2023/04/05 11:02:21;;;;;;;3.53;2.60;;;20.20;37.30;;;;;;5026409;28;20224;-76
2023/04/05 11:04:55;;;;;;;4.60;2.30;;;20.30;37.40;;;;;;5021863;28;20234;-75
2023/04/05 11:07:22;;;;;;;5.57;2.65;;;20.30;37.30;;;;;;5021195;28;20216;-76
2023/04/05 11:09:55;;;;;;;5.40;2.30;;;20.30;37.30;;;;;;5019288;28;20303;-76
2023/04/05 11:13:06;;;;;;;9.30;2.53;;;20.30;37.30;;;;;;5021013;28;20282;-74
2023/04/05 11:15:35;;;;;;;5.43;2.45;;;20.30;37.30;;;;;;5011591;28;20193;-76
2023/04/05 11:18:07;;;;;;;4.30;2.40;;;20.30;37.40;;;;;;5030034;28;20220;-75
2023/04/05 11:20:50;;;;;;;8.40;2.75;;;20.30;37.30;;;;;;5029207;28;20598;-77
2023/04/05 11:23:20;;;;;;;3.38;2.42;;;20.30;37.20;;;;;;5027870;28;20256;-74
2023/04/05 11:25:51;;;;;;;5.90;2.42;;;20.30;37.20;;;;;;5025550;28;20228;-75
2023/04/05 11:28:30;;;;;;;7.15;2.75;;;20.30;37.30;;;;;;5025790;28;20260;-75
2023/04/05 11:30:58;;;;;;;4.57;2.40;;;20.30;37.20;;;;;;5023391;28;20238;-75
2023/04/05 11:33:58;;;;;;;6.57;2.72;;;20.30;37.20;;;;;;5026517;28;20617;-76
2023/04/05 11:36:40;;;;;;;8.00;2.17;;;20.30;37.30;;;;;;4975440;28;20201;-74
2023/04/05 11:39:26;;;;;;;7.65;2.53;;;20.30;37.40;;;;;;5025765;28;20562;-75
2023/04/05 11:42:00;;;;;;;8.35;2.30;;;20.40;37.60;;;;;;5011762;28;20229;-73
2023/04/05 11:44:33;;;;;;;7.78;2.17;;;20.50;37.70;;;;;;5017082;28;20648;-75
2023/04/05 11:47:00;;;;;;;9.45;2.67;;;20.60;37.80;;;;;;5011770;28;20220;-73
2023/04/05 11:49:28;;;;;;;7.65;2.40;;;20.60;37.90;;;;;;5024396;28;20207;-74
2023/04/05 11:51:55;;;;;;;8.57;2.55;;;20.60;37.80;;;;;;5028629;28;20236;-73
2023/04/05 11:54:29;;;;;;;5.80;2.60;;;20.60;37.80;;;;;;5010990;28;20832;-75
2023/04/05 11:56:57;;;;;;;7.15;2.58;;;20.60;37.90;;;;;;5009769;28;20199;-75
2023/04/05 11:59:40;;;;;;;7.20;2.17;;;20.60;37.90;;;;;;5044510;28;20215;-74
2023/04/05 12:02:08;;;;;;;4.97;2.50;;;20.70;38.10;;;;;;5026738;28;20251;-77
2023/04/05 12:04:36;;;;;;;3.53;2.22;;;20.70;38.10;;;;;;5023834;28;20229;-79
2023/04/05 12:07:17;;;;;;;6.45;2.30;;;20.70;38.10;;;;;;5028978;28;20775;-79
2023/04/05 12:10:10;;;;;;;5.80;2.10;;;20.70;38.20;;;;;;5028941;28;20231;-78
2023/04/05 12:12:39;;;;;;;3.67;2.35;;;20.80;38.40;;;;;;5025131;28;20227;-74
2023/04/05 12:15:13;;;;;;;6.93;2.65;;;20.80;38.40;;;;;;5017467;28;20207;-70
2023/04/05 12:17:44;;;;;;;5.47;2.35;;;20.80;38.40;;;;;;5020818;28;20250;-70
2023/04/05 12:20:13;;;;;;;8.18;2.13;;;20.80;38.50;;;;;;5036705;28;20721;-68
2023/04/05 12:22:42;;;;;;;4.32;2.00;;;20.80;38.50;;;;;;5018707;28;20212;-68
2023/04/05 12:25:10;;;;;;;5.30;2.60;;;20.80;38.60;;;;;;5027892;28;20195;-72
2023/04/05 12:27:39;;;;;;;5.80;2.58;;;20.90;38.70;;;;;;5024278;28;20258;-72
2023/04/05 12:30:14;;;;;;;3.15;2.40;;;20.90;38.70;;;;;;5031693;28;20226;-71
2023/04/05 12:32:52;;;;;;;4.75;2.35;;;20.90;38.80;;;;;;5030299;28;20220;-75
2023/04/05 12:35:21;;;;;;;3.83;2.42;;;20.90;38.80;;;;;;5025474;28;20188;-73
2023/04/05 12:37:51;;;;;;;4.80;2.30;;;20.90;38.90;;;;;;5037297;28;20267;-77
2023/04/05 12:40:22;;;;;;;5.03;2.20;;;21.00;38.90;;;;;;5025618;28;20208;-74
2023/04/05 12:42:49;;;;;;;2.95;2.17;;;21.00;39.00;;;;;;5024355;28;20319;-73
2023/04/05 12:45:18;;;;;;;3.53;2.20;;;20.90;39.00;;;;;;5016582;28;20208;-75
2023/04/05 12:47:50;;;;;;;3.55;2.28;;;21.00;39.10;;;;;;5022886;28;20226;-77
2023/04/05 12:50:18;;;;;;;3.50;2.33;;;21.00;39.10;;;;;;5035936;28;20597;-71
2023/04/05 12:52:59;;;;;;;3.53;2.10;;;21.00;39.20;;;;;;5044381;28;20250;-75
2023/04/05 12:55:27;;;;;;;9.10;2.40;;;21.00;39.20;;;;;;5023085;28;20598;-72
2023/04/05 12:57:58;;;;;;;4.32;2.00;;;21.00;39.30;;;;;;5026277;28;20756;-72
2023/04/05 13:00:28;;;;;;;3.85;2.40;;;21.00;39.30;;;;;;5021036;28;20311;-75